首页
METAR-TAF:

METAR-TAF

机场 :

朗伊爾城, 挪威

斯瓦尔巴朗伊尔机场

纬度: 78-15N, 经度: 015-28E, 海拔: 2米

当前天气观测

该预报发布于24分钟前的17:50 UTC
风速7节,风向东转东南
温度 -11°C
湿度 47%
气压 1006 hPa
能见度10公里或以上
少量云层高于2500英尺

METAR: ENSB 241750Z 12007KT 9999 FEW025 M11/M20 Q1006 RMK WIND 1400FT 12013KT

时间: 20:14 (18:14 UTC)

预报

预报有效从24日的 18点(UTC)到 25日的 18点(UTC)
风速12节,风向东转东南
能见度10公里或以上
少量云层高于1500英尺

TAF: ENSB 2418/2518 12012KT 9999 FEW015

超过4000个机场的气象观测和天气预报(METAR&TAF报告)。

可查询的气象台以黄色和红色小点在地图上表示。

将鼠标移到小点上方,可查看气象台名称。

然后点击查看天气观测和预报。

如需切换地图:点击带黑十字的绿色按钮放大地图;点击带横线的绿色按钮缩小地图;或者点击绿色箭头查看邻近地区的地图。


METAR-TAF: